Time;durP1;ratioP1;P1;durP2;ratioP2;P2;SDS_P1;SDS_P2;PMS_P1;PMS_P2;Temp;Humidity;BMP_temperature;BMP_pressure;BME280_temperature;BME280_humidity;BME280_pressure;Samples;Min_cycle;Max_cycle;Signal;HPM_P1;HPM_P2
2022/06/22 00:02:00;;;;;;;8.15;4.17;;;;;;;10.49;80.57;99181.30;1691175;83;21035;-62
2022/06/22 00:04:37;;;;;;;10.08;4.72;;;;;;;10.50;80.66;99184.30;1705281;82;21440;-62
2022/06/22 00:07:09;;;;;;;6.78;4.03;;;;;;;10.48;80.62;99184.84;1715537;81;21029;-62
2022/06/22 00:09:39;;;;;;;5.80;3.60;;;;;;;10.48;80.81;99175.71;1700671;82;21700;-62
2022/06/22 00:12:20;;;;;;;10.40;4.65;;;;;;;10.49;80.85;99185.68;1716508;81;21056;-62
2022/06/22 00:14:50;;;;;;;8.68;4.30;;;;;;;10.48;80.89;99186.15;1717800;81;21374;-62
2022/06/22 00:17:33;;;;;;;7.90;4.75;;;;;;;10.48;81.02;99182.23;1716872;81;21163;-62
2022/06/22 00:20:25;;;;;;;6.97;3.62;;;;;;;10.48;81.06;99179.63;1716684;81;21131;-62
2022/06/22 00:23:00;;;;;;;6.45;3.85;;;;;;;10.48;81.15;99179.63;1711700;81;21028;-61
2022/06/22 00:25:37;;;;;;;7.40;3.95;;;;;;;10.45;81.26;99174.58;1707486;81;21569;-62
2022/06/22 00:28:28;;;;;;;8.38;3.87;;;;;;;10.44;81.31;99179.40;1715107;81;21079;-61
2022/06/22 00:31:03;;;;;;;9.30;4.30;;;;;;;10.43;81.34;99175.12;1729665;81;21899;-62
2022/06/22 00:33:30;;;;;;;7.85;4.12;;;;;;;10.41;81.40;99174.35;1697770;82;21566;-62
2022/06/22 00:36:14;;;;;;;6.17;3.83;;;;;;;10.39;81.49;99174.92;1706446;82;20990;-62
2022/06/22 00:38:41;;;;;;;6.22;4.10;;;;;;;10.38;81.55;99169.30;1717906;81;20988;-62
2022/06/22 00:41:18;;;;;;;10.10;5.37;;;;;;;10.37;81.66;99176.77;1698621;82;21064;-61
2022/06/22 00:43:45;;;;;;;;;;;;;;;10.36;81.71;99169.00;1721035;81;21045;-62
2022/06/22 00:46:23;;;;;;;7.58;4.28;;;;;;;10.33;82.02;99171.32;1688559;83;20685;-62
2022/06/22 00:48:55;;;;;;;7.92;3.98;;;;;;;10.31;81.92;99171.89;1692096;82;21361;-62
2022/06/22 00:51:32;;;;;;;7.03;3.70;;;;;;;10.28;82.01;99171.59;1711955;81;21278;-62
2022/06/22 00:54:04;;;;;;;7.40;4.22;;;;;;;10.27;82.12;99166.45;1710745;81;21048;-62
2022/06/22 00:56:41;;;;;;;6.70;4.12;;;;;;;10.25;82.21;99165.64;1697554;82;21200;-63
2022/06/22 00:59:20;;;;;;;;;;;;;;;10.23;82.23;99168.83;1727563;82;21690;-62
2022/06/22 01:02:09;;;;;;;7.95;4.83;;;;;;;10.22;82.53;99169.73;1719399;82;20501;-62
2022/06/22 01:04:43;;;;;;;10.80;5.03;;;;;;;10.18;82.31;99166.92;1690380;82;21168;-62
2022/06/22 01:07:33;;;;;;;6.55;3.90;;;;;;;10.13;82.39;99167.63;1698620;82;21026;-62
2022/06/22 01:10:20;;;;;;;8.85;4.80;;;;;;;10.12;82.57;99165.48;1607402;86;22117;-62
2022/06/22 01:13:02;;;;;;;10.25;5.03;;;;;;;10.11;82.65;99164.25;1572700;88;21159;-61
2022/06/22 01:15:34;;;;;;;9.83;5.37;;;;;;;10.09;82.75;99169.10;1632784;86;21140;-61
2022/06/22 01:18:30;;;;;;;6.35;4.17;;;;;;;10.06;82.73;99165.36;1624336;86;21290;-61
2022/06/22 01:21:19;;;;;;;9.00;4.17;;;;;;;10.05;82.95;99176.73;1631469;86;21013;-62
2022/06/22 01:23:54;;;;;;;12.33;4.10;;;;;;;10.02;83.12;99167.73;1627282;86;21216;-62
2022/06/22 01:26:48;;;;;;;12.73;5.40;;;;;;;10.01;83.38;99164.76;1636852;86;21045;-62
2022/06/22 01:29:19;;;;;;;6.97;4.05;;;;;;;10.00;83.41;99157.88;1635822;86;21205;-61
2022/06/22 01:32:09;;;;;;;10.25;5.08;;;;;;;10.00;83.47;99168.30;1639178;86;21025;-61
2022/06/22 01:34:40;;;;;;;9.20;4.35;;;;;;;9.97;83.52;99172.38;1628201;86;21093;-62
2022/06/22 01:37:15;;;;;;;9.85;4.62;;;;;;;9.95;83.68;99171.61;1627436;86;21149;-61
2022/06/22 01:39:42;;;;;;;7.12;4.40;;;;;;;9.95;83.79;99176.83;1633316;86;21085;-60
2022/06/22 01:42:19;;;;;;;6.37;4.80;;;;;;;9.94;83.77;99168.64;1630705;86;21112;-61
2022/06/22 01:44:56;;;;;;;8.13;3.67;;;;;;;9.91;83.83;99160.95;1637819;86;21149;-62
2022/06/22 01:47:38;;;;;;;6.28;4.17;;;;;;;9.89;83.91;99168.03;1662577;84;21232;-63
2022/06/22 01:50:12;;;;;;;6.58;4.30;;;;;;;9.87;83.88;99172.48;1759741;80;23085;-61
2022/06/22 01:52:53;;;;;;;8.25;5.22;;;;;;;9.83;83.89;99172.25;1750770;80;21047;-62
2022/06/22 01:55:38;;;;;;;6.30;4.00;;;;;;;9.83;84.07;99177.45;1742373;80;21071;-62
2022/06/22 01:58:15;;;;;;;6.65;4.03;;;;;;;9.83;84.13;99178.77;1721779;81;21576;-62
2022/06/22 02:00:53;;;;;;;6.45;3.98;;;;;;;9.81;84.22;99183.23;1709269;82;20993;-62
2022/06/22 02:03:23;;;;;;;;;;;;;;;9.81;84.32;99178.03;1712217;81;21454;-62
2022/06/22 02:07:44;;;;;;;4.95;4.35;;;;;;;9.82;84.51;99182.30;1708003;82;20125;-62
2022/06/22 02:08:37;;;;;;;7.55;4.80;;;;;;;9.82;84.51;99175.79;1678610;84;21185;-62
2022/06/22 02:11:09;;;;;;;7.58;4.35;;;;;;;9.81;84.48;99178.03;1680692;84;21124;-61
2022/06/22 02:13:44;;;;;;;16.70;5.50;;;;;;;9.81;84.61;99176.72;1681560;84;21078;-62
2022/06/22 02:16:34;;;;;;;6.80;3.92;;;;;;;9.85;84.65;99176.92;1679021;82;21130;-62
2022/06/22 02:19:06;;;;;;;5.60;4.33;;;;;;;9.87;84.71;99184.22;1687443;82;21198;-61
2022/06/22 02:21:41;;;;;;;11.43;5.62;;;;;;;9.89;84.81;99186.29;1665057;84;21154;-61
2022/06/22 02:24:14;;;;;;;7.15;4.25;;;;;;;9.95;84.97;99183.34;1679048;83;21619;-62
2022/06/22 02:26:54;;;;;;;6.40;4.25;;;;;;;10.01;85.06;99186.93;1652812;84;21142;-61
2022/06/22 02:29:34;;;;;;;5.12;3.95;;;;;;;10.06;85.07;99191.44;1724950;81;21456;-61
2022/06/22 02:32:06;;;;;;;7.47;4.25;;;;;;;10.12;85.11;99186.83;1713595;81;21116;-61
2022/06/22 02:34:34;;;;;;;9.40;5.33;;;;;;;10.18;85.19;99183.88;1721769;80;21173;-62
2022/06/22 02:37:08;;;;;;;8.38;4.22;;;;;;;10.24;85.19;99197.42;1757279;80;21009;-62
2022/06/22 02:39:39;;;;;;;4.92;4.25;;;;;;;10.30;85.27;99196.28;1751768;80;21088;-62
2022/06/22 02:44:52;;;;;;;6.15;4.40;;;;;;;10.72;86.13;99209.19;1757089;80;21046;-62
2022/06/22 02:47:31;;;;;;;7.07;4.47;;;;;;;11.57;86.83;99197.34;1758212;80;21046;-62
2022/06/22 02:50:26;;;;;;;7.22;3.65;;;;;;;12.30;86.64;99207.27;1755817;80;20993;-62
2022/06/22 02:52:57;;;;;;;6.78;3.42;;;;;;;13.18;86.81;99193.28;1750254;80;21614;-62
2022/06/22 02:55:29;;;;;;;4.97;3.05;;;;;;;14.29;86.32;99208.07;1746365;80;21059;-63
2022/06/22 02:58:00;;;;;;;8.20;4.08;;;;;;;15.06;85.62;99206.01;1752518;80;21056;-62
2022/06/22 03:00:32;;;;;;;5.97;3.30;;;;;;;15.74;84.63;99208.39;1750117;80;21379;-62
2022/06/22 03:03:06;;;;;;;6.28;2.72;;;;;;;16.28;84.03;99208.98;1741668;80;21122;-63
2022/06/22 03:05:34;;;;;;;7.05;2.95;;;;;;;16.98;83.58;99201.67;1757350;80;21036;-63
2022/06/22 03:08:03;;;;;;;5.28;2.70;;;;;;;17.54;82.73;99197.91;1756933;80;21077;-63
2022/06/22 03:10:41;;;;;;;6.65;3.47;;;;;;;18.26;83.79;99189.09;1753870;80;21001;-63
2022/06/22 03:13:13;;;;;;;5.95;2.60;;;;;;;19.13;83.58;99190.58;1747177;80;21534;-63
2022/06/22 03:15:40;;;;;;;5.10;2.95;;;;;;;19.82;82.31;99196.11;1742330;80;21534;-63
2022/06/22 03:18:13;;;;;;;6.58;2.92;;;;;;;20.28;81.61;99193.08;1742690;80;21021;-63
2022/06/22 03:20:45;;;;;;;6.45;2.47;;;;;;;20.84;81.10;99195.67;1723359;80;21131;-63
2022/06/22 03:23:29;;;;;;;5.67;2.72;;;;;;;21.22;80.12;99184.75;1746585;80;21072;-63
2022/06/22 03:26:16;;;;;;;5.28;3.02;;;;;;;21.95;80.50;99182.27;1737541;80;21094;-63
2022/06/22 03:28:51;;;;;;;8.60;2.58;;;;;;;22.50;79.58;99184.52;1758226;80;21615;-63
2022/06/22 03:31:23;;;;;;;4.92;2.70;;;;;;;23.34;79.54;99174.66;1747520;80;20934;-63
2022/06/22 03:33:58;;;;;;;4.65;2.30;;;;;;;24.07;78.91;99175.52;1747078;80;21146;-63
2022/06/22 03:36:33;;;;;;;4.65;2.52;;;;;;;24.36;76.39;99172.22;1755687;80;20993;-64
2022/06/22 03:39:10;;;;;;;8.48;3.02;;;;;;;24.53;75.79;99174.33;1746227;80;21609;-63
2022/06/22 03:41:50;;;;;;;6.72;2.60;;;;;;;25.05;76.02;99172.31;1745067;80;21390;-63
2022/06/22 03:44:27;;;;;;;6.60;2.22;;;;;;;25.71;76.01;99159.70;1748509;80;22098;-64
2022/06/22 03:46:58;;;;;;;5.08;2.45;;;;;;;26.03;73.58;99156.69;1751209;80;21198;-64
2022/06/22 03:49:35;;;;;;;10.43;3.00;;;;;;;26.26;73.20;99154.41;1757198;80;21068;-64
2022/06/22 03:52:08;;;;;;;4.45;2.42;;;;;;;26.66;72.91;99160.23;1737503;80;21679;-64
2022/06/22 03:54:57;;;;;;;6.20;2.40;;;;;;;27.07;72.28;99162.29;1751242;80;21029;-64
2022/06/22 03:57:29;;;;;;;5.95;2.30;;;;;;;27.58;71.75;99164.77;1745082;80;21017;-64
2022/06/22 03:59:57;;;;;;;6.03;2.50;;;;;;;28.14;70.84;99161.20;1771674;80;21524;-64
2022/06/22 04:02:26;;;;;;;5.70;2.30;;;;;;;28.27;69.17;99159.41;1749660;80;21001;-64
2022/06/22 04:04:55;;;;;;;8.58;2.70;;;;;;;28.50;69.21;99164.46;1765124;80;20952;-64
2022/06/22 04:07:28;;;;;;;11.55;3.10;;;;;;;29.15;68.37;99162.11;1760091;80;21064;-64
2022/06/22 04:09:56;;;;;;;6.45;2.47;;;;;;;29.58;68.41;99167.08;1763713;80;21037;-64
2022/06/22 04:12:31;;;;;;;10.68;2.30;;;;;;;30.30;67.43;99167.12;1769887;80;21101;-64
2022/06/22 04:15:21;;;;;;;6.25;2.60;;;;;;;30.35;65.77;99171.88;1764925;80;21028;-65
2022/06/22 04:17:59;;;;;;;6.83;2.20;;;;;;;30.14;64.13;99171.60;1766061;80;21076;-64
2022/06/22 04:20:56;;;;;;;5.35;1.85;;;;;;;30.02;63.85;99174.95;1751895;80;21048;-64
2022/06/22 04:23:34;;;;;;;6.60;2.22;;;;;;;30.38;62.59;99177.65;1751155;80;21110;-64
2022/06/22 04:28:33;;;;;;;;;;;;;;;30.04;61.17;99182.30;1855853;75;21958;-63
2022/06/22 04:31:02;;;;;;;5.58;2.30;;;;;;;30.23;60.66;99183.31;1830895;77;20154;-63
2022/06/22 04:33:52;;;;;;;5.22;2.30;;;;;;;30.44;59.66;99181.34;1834521;77;21363;-64
2022/06/22 04:36:33;;;;;;;3.85;1.77;;;;;;;30.54;59.68;99187.94;1761615;78;22077;-64
2022/06/22 04:39:08;;;;;;;8.13;2.42;;;;;;;30.82;58.42;99181.39;1770940;78;21366;-65
2022/06/22 04:41:39;;;;;;;6.42;2.00;;;;;;;30.72;57.32;99162.13;1777511;78;21044;-65
2022/06/22 04:44:17;;;;;;;7.28;2.20;;;;;;;30.43;56.16;99177.02;1765022;78;21009;-65
2022/06/22 04:46:51;;;;;;;3.98;1.85;;;;;;;30.33;56.71;99177.45;1700121;81;22079;-64
2022/06/22 04:49:38;;;;;;;2.90;1.70;;;;;;;30.75;55.72;99185.95;1727950;80;21001;-64
2022/06/22 04:52:10;;;;;;;4.80;1.90;;;;;;;30.74;54.63;99184.30;1763003;78;21032;-64
2022/06/22 04:54:41;;;;;;;7.60;2.62;;;;;;;30.46;54.03;99196.26;1757735;78;21089;-65
2022/06/22 04:57:15;;;;;;;5.55;1.85;;;;;;;30.38;53.95;99196.50;1774433;78;21685;-65
2022/06/22 04:59:43;;;;;;;4.67;1.77;;;;;;;30.36;52.72;99203.99;1735736;80;21064;-65
2022/06/22 05:02:13;;;;;;;5.40;1.70;;;;;;;29.99;52.62;99203.64;1772533;78;21033;-65
2022/06/22 05:04:44;;;;;;;2.95;1.72;;;;;;;29.86;51.52;99198.31;1760001;78;21060;-65
2022/06/22 05:07:36;;;;;;;3.92;1.85;;;;;;;29.88;51.96;99198.91;1767612;78;20919;-65
2022/06/22 05:10:49;;;;;;;6.30;1.72;;;;;;;29.91;50.34;99197.14;1717531;80;21650;-65
2022/06/22 05:13:21;;;;;;;5.10;1.53;;;;;;;29.60;49.69;99199.95;1792905;78;21535;-64
2022/06/22 05:15:52;;;;;;;3.12;1.47;;;;;;;29.03;49.40;99196.02;1759286;80;21733;-64
2022/06/22 05:18:27;;;;;;;2.15;1.25;;;;;;;28.55;48.97;99194.75;1780583;78;21021;-64
2022/06/22 05:21:19;;;;;;;4.97;2.00;;;;;;;27.65;47.31;99193.82;1745130;79;21052;-65
2022/06/22 05:23:50;;;;;;;6.05;1.40;;;;;;;27.01;46.92;99198.20;1768347;79;21090;-65
2022/06/22 05:26:22;;;;;;;4.53;1.67;;;;;;;25.85;45.99;99196.34;1792374;78;21089;-63
2022/06/22 05:29:05;;;;;;;6.40;1.87;;;;;;;25.27;47.07;99200.05;1786539;79;22307;-64
2022/06/22 05:31:39;;;;;;;3.10;1.55;;;;;;;25.29;47.52;99209.21;1795270;79;20967;-64
2022/06/22 05:34:11;;;;;;;7.55;1.80;;;;;;;25.04;47.30;99208.06;1794079;79;20977;-63
2022/06/22 05:37:01;;;;;;;4.87;1.60;;;;;;;24.86;47.84;99210.17;1792404;78;21056;-63
2022/06/22 05:39:28;;;;;;;4.15;1.55;;;;;;;25.00;47.21;99207.56;1760315;80;21276;-63
2022/06/22 05:41:55;;;;;;;7.22;1.90;;;;;;;24.68;46.76;99211.28;1796697;77;21030;-63
2022/06/22 05:44:23;;;;;;;8.80;1.80;;;;;;;24.41;46.93;99214.39;1791959;78;21105;-63
2022/06/22 05:46:57;;;;;;;4.55;1.50;;;;;;;24.08;46.99;99214.51;1765195;80;21017;-63
2022/06/22 05:49:32;;;;;;;7.05;2.20;;;;;;;24.25;47.98;99213.44;1770901;80;21060;-63
2022/06/22 05:52:12;;;;;;;4.95;1.80;;;;;;;24.26;47.81;99209.79;1776543;78;21486;-64
2022/06/22 05:54:53;;;;;;;3.98;1.72;;;;;;;24.55;47.28;99198.50;1709661;81;22414;-64
2022/06/22 05:57:42;;;;;;;9.15;2.10;;;;;;;24.25;46.31;99210.77;1712294;82;21129;-64
2022/06/22 06:00:20;;;;;;;7.10;2.08;;;;;;;23.84;47.18;99216.25;1766607;80;21088;-64
2022/06/22 06:03:30;;;;;;;6.53;1.95;;;;;;;23.19;47.34;99210.93;1769615;79;21597;-64
2022/06/22 06:06:02;;;;;;;6.17;1.85;;;;;;;23.52;48.18;99208.27;1759916;79;22317;-64
2022/06/22 06:08:41;;;;;;;4.15;1.62;;;;;;;23.38;47.33;99207.11;1765236;79;21156;-64
2022/06/22 06:11:18;;;;;;;4.33;1.77;;;;;;;23.00;48.64;99207.61;1762317;80;21070;-63
2022/06/22 06:13:58;;;;;;;3.50;1.55;;;;;;;23.11;47.78;99206.45;1760371;80;21152;-64
2022/06/22 06:16:26;;;;;;;5.10;1.87;;;;;;;23.68;48.67;99205.59;1769918;80;21507;-64
2022/06/22 06:18:58;;;;;;;9.73;2.17;;;;;;;24.10;48.33;99205.84;1769652;80;21140;-64
2022/06/22 06:21:31;;;;;;;3.80;1.67;;;;;;;24.14;47.84;99216.48;1763508;79;21093;-64
2022/06/22 06:24:03;;;;;;;5.08;1.92;;;;;;;23.69;46.78;99228.56;1762244;80;21302;-64
2022/06/22 06:30:00;;;;;;;4.05;1.50;;;;;;;22.85;47.75;99227.83;1755084;80;21062;-64
2022/06/22 06:32:41;;;;;;;8.33;2.20;;;;;;;22.77;48.42;99234.50;1812837;76;22200;-64
2022/06/22 06:35:19;;;;;;;7.30;2.02;;;;;;;22.54;48.31;99232.91;1791696;78;21765;-63
2022/06/22 06:38:28;;;;;;;3.70;1.80;;;;;;;22.97;48.80;99231.07;1775515;79;21016;-64
2022/06/22 06:41:24;;;;;;;4.35;1.95;;;;;;;23.29;48.43;99238.24;1795609;78;21063;-64
2022/06/22 06:44:10;;;;;;;5.90;1.85;;;;;;;23.31;48.03;99241.58;1799405;78;21037;-64
2022/06/22 06:46:45;;;;;;;4.72;1.80;;;;;;;23.11;48.37;99250.90;1790887;78;21745;-64
2022/06/22 06:49:20;;;;;;;5.55;1.82;;;;;;;23.37;49.02;99254.23;1754884;80;21544;-63
2022/06/22 06:51:57;;;;;;;6.92;2.00;;;;;;;23.50;48.46;99258.22;1793325;78;21607;-63
2022/06/22 06:54:31;;;;;;;10.40;1.90;;;;;;;22.98;48.77;99253.52;1761104;80;20997;-63
2022/06/22 06:57:06;;;;;;;4.85;2.12;;;;;;;23.50;49.29;99252.41;1760805;80;21524;-64
2022/06/22 06:59:34;;;;;;;9.35;2.27;;;;;;;23.55;48.48;99253.23;1772130;79;21514;-63
2022/06/22 07:02:06;;;;;;;8.90;2.20;;;;;;;23.12;48.21;99260.54;1794570;78;21065;-63
2022/06/22 07:04:35;;;;;;;4.17;1.87;;;;;;;22.93;48.75;99254.47;1793458;78;20954;-62
2022/06/22 07:07:40;;;;;;;7.45;2.17;;;;;;;22.47;48.77;99261.98;1756852;80;21504;-63
2022/06/22 07:10:36;;;;;;;5.35;2.02;;;;;;;21.73;49.20;99273.15;1790460;78;21059;-62
2022/06/22 07:13:08;;;;;;;7.03;2.50;;;;;;;21.56;49.77;99275.67;1761972;80;22279;-63
2022/06/22 07:15:39;;;;;;;5.53;1.80;;;;;;;21.46;50.52;99269.63;1761284;78;21008;-63
2022/06/22 07:18:23;;;;;;;10.30;1.92;;;;;;;21.75;50.29;99265.86;1798095;78;21119;-62
2022/06/22 07:21:14;;;;;;;5.90;1.95;;;;;;;21.83;50.42;99268.58;1778665;79;21617;-62
2022/06/22 07:24:01;;;;;;;3.10;1.70;;;;;;;21.32;50.32;99274.12;1785646;79;21572;-64
2022/06/22 07:29:45;;;;;;;5.03;2.00;;;;;;;21.34;51.14;99265.49;1809611;77;22798;-64
2022/06/22 07:32:39;;;;;;;6.67;2.10;;;;;;;21.43;51.64;99269.94;1782084;78;21011;-63
2022/06/22 07:35:33;;;;;;;6.62;1.90;;;;;;;21.73;51.38;99263.84;1785655;79;21048;-64
2022/06/22 07:38:31;;;;;;;9.00;2.30;;;;;;;21.32;51.28;99268.32;1784660;78;22151;-64
2022/06/22 07:43:47;;;;;;;6.33;1.90;;;;;;;21.29;52.02;99273.94;1780302;78;21058;-64
2022/06/22 07:46:19;;;;;;;9.55;1.70;;;;;;;21.38;52.55;99269.56;1777665;78;21371;-63
2022/06/22 07:48:49;;;;;;;6.95;1.30;;;;;;;21.27;51.34;99277.73;1777879;78;20992;-63
2022/06/22 07:51:22;;;;;;;7.33;2.40;;;;;;;21.20;52.31;99267.72;1779676;78;21036;-63
2022/06/22 07:54:09;;;;;;;7.33;2.08;;;;;;;21.10;52.34;99264.29;1786310;77;20972;-63
2022/06/22 07:56:58;;;;;;;8.10;2.12;;;;;;;20.89;52.20;99277.00;1779602;78;21625;-63
2022/06/22 07:59:29;;;;;;;4.30;1.85;;;;;;;20.61;52.43;99274.36;1709750;81;21587;-63
2022/06/22 08:02:00;;;;;;;5.22;2.00;;;;;;;20.58;52.95;99272.50;1717696;80;22262;-63
2022/06/22 08:04:41;;;;;;;3.40;1.85;;;;;;;20.73;53.00;99278.50;1704940;81;21655;-62
2022/06/22 08:07:25;;;;;;;6.62;2.10;;;;;;;20.61;53.01;99282.31;1651020;82;21267;-63
2022/06/22 08:10:03;;;;;;;8.30;1.80;;;;;;;20.73;53.06;99286.46;1666020;83;21054;-62
2022/06/22 08:12:34;;;;;;;3.60;1.67;;;;;;;20.46;52.63;99283.77;1708252;80;21737;-64
2022/06/22 08:15:06;;;;;;;5.28;2.05;;;;;;;20.10;53.02;99283.61;1648604;82;21820;-63
2022/06/22 08:17:52;;;;;;;4.10;1.60;;;;;;;20.15;53.78;99291.97;1715817;80;21058;-63
2022/06/22 08:20:33;;;;;;;9.33;1.90;;;;;;;20.74;53.81;99290.77;1709705;81;21101;-62
2022/06/22 08:23:04;;;;;;;7.00;2.25;;;;;;;20.56;53.00;99284.60;1713415;80;21104;-63
2022/06/22 08:25:33;;;;;;;5.30;2.17;;;;;;;20.69;52.86;99293.03;1711378;81;21026;-62
2022/06/22 08:28:02;;;;;;;5.70;1.87;;;;;;;20.87;52.99;99294.91;1715403;80;21186;-62
2022/06/22 08:30:31;;;;;;;7.22;2.20;;;;;;;20.99;52.52;99292.37;1660669;83;21084;-62
2022/06/22 08:33:07;;;;;;;7.35;1.95;;;;;;;20.96;52.06;99291.36;1692324;83;21127;-63
2022/06/22 08:35:42;;;;;;;4.72;1.77;;;;;;;20.78;52.88;99290.84;1629697;85;21043;-62
2022/06/22 08:38:21;;;;;;;9.00;1.92;;;;;;;20.59;52.75;99288.78;1696705;83;21018;-62
2022/06/22 08:41:14;;;;;;;10.43;2.42;;;;;;;20.87;53.91;99285.63;1719874;82;21108;-62
2022/06/22 08:43:55;;;;;;;5.80;2.40;;;;;;;21.47;53.91;99284.57;1719925;81;21583;-63
2022/06/22 08:46:47;;;;;;;5.45;1.60;;;;;;;21.83;52.75;99276.55;1728618;81;20934;-62
2022/06/22 08:49:41;;;;;;;5.87;1.52;;;;;;;21.37;49.24;99278.50;1713614;81;21096;-64
2022/06/22 08:52:16;;;;;;;6.55;1.67;;;;;;;20.91;51.21;99277.69;1699134;82;20978;-63
2022/06/22 08:55:22;;;;;;;5.58;1.87;;;;;;;20.99;52.64;99283.09;1694920;83;21567;-64
2022/06/22 08:58:23;;;;;;;6.90;1.60;;;;;;;21.24;51.63;99277.53;1706600;82;20989;-63
2022/06/22 09:01:36;;;;;;;4.22;1.82;;;;;;;21.62;50.75;99288.37;1703144;82;21095;-63
2022/06/22 09:04:18;;;;;;;7.97;1.62;;;;;;;20.94;50.87;99293.31;1701417;82;21053;-62
2022/06/22 09:07:29;;;;;;;4.37;1.70;;;;;;;20.85;51.78;99295.05;1700406;82;21033;-63
2022/06/22 09:10:34;;;;;;;5.17;1.87;;;;;;;21.10;52.25;99301.45;1620937;86;21732;-63
2022/06/22 09:13:35;;;;;;;4.62;1.52;;;;;;;21.33;51.45;99303.67;1626837;87;21646;-63
2022/06/22 09:16:19;;;;;;;3.22;1.27;;;;;;;21.00;51.29;99308.63;1596008;87;21167;-62
2022/06/22 09:18:55;;;;;;;4.30;1.57;;;;;;;21.21;51.64;99309.20;1592261;88;21142;-64
2022/06/22 09:22:07;;;;;;;6.40;1.57;;;;;;;21.48;51.23;99312.79;1621833;86;22248;-63
2022/06/22 09:25:06;;;;;;;5.95;1.42;;;;;;;21.55;49.99;99313.86;1585529;89;21070;-63
2022/06/22 09:27:47;;;;;;;5.05;1.67;;;;;;;21.34;49.99;99307.98;1582182;89;21656;-63
2022/06/22 09:30:20;;;;;;;4.17;1.22;;;;;;;20.85;50.64;99306.16;1584253;89;21065;-63
2022/06/22 09:33:21;;;;;;;6.20;1.55;;;;;;;21.18;51.41;99314.81;1582235;89;21094;-63
2022/06/22 09:36:36;;;;;;;5.62;1.80;;;;;;;21.60;50.88;99314.25;1570979;90;21271;-63
2022/06/22 09:39:23;;;;;;;2.45;1.50;;;;;;;21.80;51.24;99311.41;1583385;90;21464;-63
2022/06/22 09:42:01;;;;;;;11.18;2.00;;;;;;;21.74;49.58;99317.35;1579936;89;22430;-63
2022/06/22 09:45:15;;;;;;;4.55;1.47;;;;;;;21.18;50.29;99314.81;1583729;90;21136;-63
2022/06/22 09:47:56;;;;;;;5.60;1.65;;;;;;;21.07;50.30;99324.32;1601063;88;21161;-63
2022/06/22 09:51:00;;;;;;;5.03;1.22;;;;;;;21.18;50.08;99328.09;1601348;87;21088;-63
2022/06/22 09:54:02;;;;;;;3.83;1.40;;;;;;;21.05;50.42;99320.97;1574301;89;21141;-64
2022/06/22 09:56:58;;;;;;;2.17;1.20;;;;;;;21.12;50.69;99326.04;1566144;90;21661;-63
2022/06/22 09:59:53;;;;;;;3.35;1.37;;;;;;;21.07;50.16;99324.81;1550306;90;26705;-63
2022/06/22 10:02:48;;;;;;;7.80;1.72;;;;;;;21.08;50.78;99329.96;1610815;86;21185;-63
2022/06/22 10:06:00;;;;;;;5.85;1.60;;;;;;;21.55;50.55;99325.81;1637370;86;21196;-64
2022/06/22 10:08:51;;;;;;;6.55;1.60;;;;;;;22.13;50.88;99311.98;1645646;85;21949;-63
2022/06/22 10:11:33;;;;;;;3.22;1.25;;;;;;;22.55;49.92;99317.89;1642790;86;21869;-63
2022/06/22 10:14:17;;;;;;;3.67;1.77;;;;;;;22.27;48.84;99325.73;1634381;86;21251;-63
2022/06/22 10:17:15;;;;;;;10.58;1.87;;;;;;;21.83;49.12;99332.36;1640175;86;21235;-63
2022/06/22 10:20:00;;;;;;;2.80;1.60;;;;;;;21.33;48.94;99326.23;1658789;85;21092;-63
2022/06/22 10:22:58;;;;;;;7.58;1.95;;;;;;;21.37;49.78;99328.95;1661531;85;21139;-63
2022/06/22 10:25:54;;;;;;;4.45;1.70;;;;;;;21.71;50.13;99332.28;1659085;85;21089;-63
2022/06/22 10:28:54;;;;;;;5.45;1.37;;;;;;;21.55;49.24;99329.80;1667232;84;26762;-63
2022/06/22 10:31:55;;;;;;;8.48;2.00;;;;;;;21.56;49.93;99330.63;1695283;84;21115;-63
2022/06/22 10:34:48;;;;;;;4.65;1.65;;;;;;;21.64;49.80;99336.84;1691672;84;21002;-63
2022/06/22 10:37:48;;;;;;;5.17;1.35;;;;;;;22.01;50.48;99325.17;1699331;83;21522;-63
2022/06/22 10:47:29;;;;;;;4.80;1.67;;;;;;;22.34;49.39;99336.89;1625891;85;21218;-62
2022/06/22 10:50:10;;;;;;;7.87;1.92;;;;;;;22.19;49.56;99333.66;1568126;89;21669;-64
2022/06/22 10:53:02;;;;;;;8.85;2.10;;;;;;;22.12;49.75;99340.04;1567975;89;21242;-64
2022/06/22 10:55:53;;;;;;;2.70;1.17;;;;;;;22.12;49.11;99348.88;1568942;89;21134;-63
2022/06/22 10:58:50;;;;;;;3.55;1.45;;;;;;;21.86;48.44;99350.66;1567839;89;21124;-63
2022/06/22 11:01:46;;;;;;;10.38;2.17;;;;;;;21.83;49.57;99348.31;1566748;90;21165;-63
2022/06/22 11:04:24;;;;;;;12.98;1.92;;;;;;;21.68;49.26;99340.88;1574255;89;21152;-63
2022/06/22 11:07:17;;;;;;;6.33;1.75;;;;;;;21.55;49.51;99337.77;1550797;89;21320;-64
2022/06/22 11:09:52;;;;;;;8.40;2.40;;;;;;;21.61;49.47;99338.48;1574759;89;21231;-63
2022/06/22 11:13:01;;;;;;;5.15;1.82;;;;;;;21.60;50.12;99338.16;1574098;89;21121;-62
2022/06/22 11:16:11;;;;;;;6.83;2.10;;;;;;;21.85;49.67;99334.38;1566469;88;21061;-63
2022/06/22 11:18:52;;;;;;;2.60;1.65;;;;;;;21.76;49.99;99328.64;1576871;88;21052;-62
2022/06/22 11:21:24;;;;;;;3.40;1.50;;;;;;;21.74;49.83;99327.98;1577701;87;21619;-60
2022/06/22 11:24:14;;;;;;;5.47;1.70;;;;;;;21.74;50.33;99331.47;1577441;88;21121;-61
2022/06/22 11:33:31;;;;;;;8.95;1.62;;;;;;;21.24;49.85;99330.63;1595623;88;21712;-62
2022/06/22 11:36:48;;;;;;;4.60;1.60;;;;;;;21.22;50.33;99332.09;1604892;88;21205;-63
2022/06/22 11:39:44;;;;;;;4.05;1.80;;;;;;;21.20;50.61;99331.44;1599512;87;21017;-61
2022/06/22 11:42:27;;;;;;;10.08;1.82;;;;;;;21.48;50.96;99323.41;1564372;88;21641;-63
2022/06/22 11:47:59;;;;;;;7.22;2.40;;;;;;;22.29;51.65;99319.73;1587404;88;21157;-63
2022/06/22 11:50:37;;;;;;;4.55;1.60;;;;;;;22.53;50.68;99327.85;1587108;88;21640;-63
2022/06/22 11:53:12;;;;;;;8.65;1.62;;;;;;;21.82;50.38;99322.73;1589028;88;21152;-62
2022/06/22 11:55:44;;;;;;;3.35;1.77;;;;;;;21.44;50.97;99320.73;1586851;88;21620;-62
2022/06/22 11:58:46;;;;;;;7.83;1.85;;;;;;;21.15;51.40;99323.08;1588671;88;21229;-62
2022/06/22 12:01:43;;;;;;;4.72;1.70;;;;;;;21.17;52.05;99315.81;1589720;88;21053;-63
2022/06/22 12:04:39;;;;;;;4.22;2.08;;;;;;;21.56;52.22;99315.52;1588484;88;21268;-63
2022/06/22 12:07:28;;;;;;;4.50;1.72;;;;;;;21.72;51.53;99314.84;1587832;88;20999;-63
2022/06/22 12:10:41;;;;;;;6.58;2.17;;;;;;;21.24;51.62;99312.88;1612263;86;20989;-63
2022/06/22 12:13:38;;;;;;;6.75;2.62;;;;;;;20.81;52.12;99308.74;1633010;87;21179;-63
2022/06/22 12:16:25;;;;;;;;;;;;;;;20.79;52.67;99319.02;1630266;85;21052;-63
2022/06/22 12:19:26;;;;;;;2.62;1.80;;;;;;;21.16;52.76;99314.13;1679486;82;21579;-63
2022/06/22 12:22:04;;;;;;;7.15;1.70;;;;;;;21.45;52.90;99305.13;1695172;82;20942;-63
2022/06/22 12:24:54;;;;;;;10.10;2.62;;;;;;;21.63;51.90;99307.30;1693493;82;21122;-63
2022/06/22 12:27:42;;;;;;;4.47;1.65;;;;;;;21.30;52.56;99309.28;1694832;82;21920;-63
2022/06/22 12:30:39;;;;;;;5.42;2.02;;;;;;;21.27;52.09;99322.87;1691232;82;21064;-63
2022/06/22 12:33:18;;;;;;;;;;;;;;;21.18;52.19;99317.47;1696444;82;21106;-63
2022/06/22 12:36:25;;;;;;;9.13;1.50;;;;;;;21.27;51.72;99318.88;1700482;82;20177;-63
2022/06/22 12:39:04;;;;;;;8.98;2.08;;;;;;;21.19;52.49;99312.48;1694458;82;21723;-63
2022/06/22 12:42:12;;;;;;;3.30;1.90;;;;;;;21.33;52.61;99308.98;1691906;82;21119;-62
2022/06/22 12:44:58;;;;;;;7.78;1.60;;;;;;;21.19;51.90;99305.85;1687248;82;21104;-63
2022/06/22 12:47:31;;;;;;;;;;;;;;;21.02;52.58;99304.02;1682426;82;22343;-64
2022/06/22 12:50:06;;;;;;;2.35;1.60;;;;;;;21.33;53.06;99301.02;1686103;84;20165;-64
2022/06/22 12:52:44;;;;;;;4.28;2.12;;;;;;;21.80;53.28;99298.95;1687507;83;21093;-63
2022/06/22 12:55:19;;;;;;;2.92;1.52;;;;;;;21.82;52.21;99292.17;1688906;83;20987;-63
2022/06/22 12:58:06;;;;;;;9.15;2.17;;;;;;;21.70;52.32;99297.38;1687148;83;21072;-62
2022/06/22 13:00:34;;;;;;;6.12;2.02;;;;;;;21.81;53.29;99294.47;1624793;87;21437;-62
2022/06/22 13:03:03;;;;;;;6.50;2.08;;;;;;;22.31;52.90;99299.14;1576125;88;21392;-63
2022/06/22 13:05:34;;;;;;;6.08;1.92;;;;;;;22.12;52.23;99299.69;1595030;88;21068;-63
2022/06/22 13:08:18;;;;;;;7.37;2.00;;;;;;;22.16;52.59;99295.38;1618251;86;21929;-63
2022/06/22 13:10:52;;;;;;;90.60;50.85;;;;;;;22.40;52.98;99297.36;1621525;87;21128;-62
2022/06/22 13:13:42;;;;;;;4.08;2.50;;;;;;;22.45;52.35;99287.91;1618599;87;21155;-63